createdAt,value
2023-05-04T00:07:08.659Z,4.8
2023-05-04T00:22:18.069Z,4.3
2023-05-04T00:37:27.806Z,4.1
2023-05-04T00:52:37.831Z,4.1
2023-05-04T01:07:47.085Z,4.7
2023-05-04T01:22:56.271Z,4.1
2023-05-04T01:38:05.696Z,4.3
2023-05-04T01:53:15.547Z,4.2
2023-05-04T02:08:25.077Z,4.5
2023-05-04T02:23:34.472Z,4.7
2023-05-04T02:38:44.115Z,4.9
2023-05-04T02:53:53.691Z,4.1
2023-05-04T03:09:03.859Z,3.5
2023-05-04T03:24:13.507Z,3.7
2023-05-04T03:39:22.547Z,3.7
2023-05-04T03:54:32.431Z,3.5
2023-05-04T04:09:41.858Z,4.1
2023-05-04T04:24:51.375Z,3.9
2023-05-04T04:40:00.878Z,5.8
2023-05-04T04:55:10.747Z,6.5
2023-05-04T05:10:22.114Z,6.7
2023-05-04T05:25:32.455Z,5.9
2023-05-04T05:40:42.647Z,7.7
2023-05-04T05:55:52.735Z,8.8
2023-05-04T06:11:02.634Z,9.6
2023-05-04T06:26:13.046Z,6.8
2023-05-04T06:41:23.224Z,6
2023-05-04T06:56:33.462Z,7.6
2023-05-04T07:11:42.991Z,11.5
2023-05-04T07:26:52.762Z,8
2023-05-04T07:42:03.164Z,4.6
2023-05-04T07:57:13.809Z,3.7
2023-05-04T08:12:23.898Z,4.6
2023-05-04T08:27:33.887Z,4.5
2023-05-04T08:42:44.149Z,4.5
2023-05-04T08:57:54.617Z,4.1
2023-05-04T09:13:04.883Z,4.5
2023-05-04T09:28:15.357Z,4.2
2023-05-04T09:43:25.556Z,4.9
2023-05-04T09:58:35.427Z,4.3
2023-05-04T10:13:45.517Z,4.9
2023-05-04T10:28:55.453Z,4.5
2023-05-04T10:44:05.453Z,3.7
2023-05-04T10:59:15.661Z,4.1
2023-05-04T11:14:25.850Z,3.8
2023-05-04T11:29:36.866Z,3.5
2023-05-04T11:44:48.440Z,4
2023-05-04T11:59:58.518Z,3.6
2023-05-04T12:15:09.437Z,5.3
2023-05-04T12:30:19.200Z,3.9
2023-05-04T12:45:29.331Z,4.9
2023-05-04T13:00:39.622Z,4
2023-05-04T13:15:53.113Z,3.7
2023-05-04T13:31:04.210Z,3.5
2023-05-04T13:46:14.870Z,3.7
2023-05-04T14:01:25.550Z,3
2023-05-04T14:16:37.876Z,3.7
2023-05-04T14:31:47.645Z,3
2023-05-04T14:46:57.886Z,3.3
2023-05-04T15:02:08.827Z,3.4
2023-05-04T15:17:22.145Z,2.9
2023-05-04T15:32:31.701Z,3.6
2023-05-04T15:47:41.828Z,4.5
2023-05-04T16:02:52.025Z,4.5
2023-05-04T16:18:02.103Z,5.7
2023-05-04T16:33:12.211Z,4.2
2023-05-04T16:48:22.378Z,3.9
2023-05-04T17:03:32.135Z,4.3
2023-05-04T17:18:42.122Z,3.7
2023-05-04T17:33:51.565Z,4.1
2023-05-04T17:49:02.101Z,4.5
2023-05-04T18:04:11.512Z,4.4
2023-05-04T18:19:21.238Z,5.6
2023-05-04T18:34:30.351Z,5.6
2023-05-04T18:49:39.758Z,5.6
2023-05-04T19:04:49.507Z,4.4
2023-05-04T19:19:58.933Z,5.1
2023-05-04T19:35:08.178Z,5.4
2023-05-04T19:50:22.373Z,5.3
2023-05-04T20:05:32.131Z,4.7
2023-05-04T20:20:41.515Z,4
2023-05-04T20:35:51.175Z,4
2023-05-04T20:51:15.347Z,3.6
2023-05-04T21:06:25.732Z,4
2023-05-04T21:21:35.946Z,3.7
2023-05-04T21:36:45.515Z,3.9
2023-05-04T21:51:55.449Z,3.7
2023-05-04T22:07:05.729Z,3.7
2023-05-04T22:22:15.628Z,3.8
2023-05-04T22:37:26.412Z,3.7
2023-05-04T22:52:37.169Z,3.8
2023-05-04T23:07:47.072Z,3.8
2023-05-04T23:22:56.306Z,3.5
2023-05-04T23:38:05.783Z,4.2
2023-05-04T23:53:15.531Z,4.1
